sensor_id;sensor_type;location;lat;lon;timestamp;pressure;altitude;pressure_sealevel;temperature;humidity
21185;BME280;18176;49.502;11.754;2023-12-29T00:01:13;96944.72;;;15.69;52.79
21185;BME280;18176;49.502;11.754;2023-12-29T00:05:34;96951.13;;;15.63;53.01
21185;BME280;18176;49.502;11.754;2023-12-29T00:09:54;96931.53;;;15.48;53.37
21185;BME280;18176;49.502;11.754;2023-12-29T00:14:15;96921.72;;;15.68;52.95
21185;BME280;18176;49.502;11.754;2023-12-29T00:18:39;96930.75;;;15.47;53.83
21185;BME280;18176;49.502;11.754;2023-12-29T00:23:01;96902.81;;;15.23;54.14
21185;BME280;18176;49.502;11.754;2023-12-29T00:27:21;96926.50;;;15.61;53.46
21185;BME280;18176;49.502;11.754;2023-12-29T00:31:42;96923.09;;;15.76;52.90
21185;BME280;18176;49.502;11.754;2023-12-29T00:36:06;96922.69;;;15.42;54.11
21185;BME280;18176;49.502;11.754;2023-12-29T00:40:26;96925.53;;;15.87;52.73
21185;BME280;18176;49.502;11.754;2023-12-29T00:44:47;96930.81;;;15.67;52.96
21185;BME280;18176;49.502;11.754;2023-12-29T00:49:08;96923.88;;;15.66;53.13
21185;BME280;18176;49.502;11.754;2023-12-29T00:53:31;96926.34;;;15.98;52.14
21185;BME280;18176;49.502;11.754;2023-12-29T00:57:53;96923.97;;;15.96;52.39
21185;BME280;18176;49.502;11.754;2023-12-29T01:02:15;96903.38;;;15.30;53.22
21185;BME280;18176;49.502;11.754;2023-12-29T01:06:36;96932.63;;;15.52;53.32
21185;BME280;18176;49.502;11.754;2023-12-29T01:10:59;96921.66;;;15.48;53.16
21185;BME280;18176;49.502;11.754;2023-12-29T01:15:20;96913.66;;;15.53;53.15
21185;BME280;18176;49.502;11.754;2023-12-29T01:19:40;96906.25;;;15.65;52.64
21185;BME280;18176;49.502;11.754;2023-12-29T01:24:01;96904.13;;;15.67;52.46
21185;BME280;18176;49.502;11.754;2023-12-29T01:28:27;96896.16;;;15.92;52.19
21185;BME280;18176;49.502;11.754;2023-12-29T01:32:48;96886.00;;;15.79;52.07
21185;BME280;18176;49.502;11.754;2023-12-29T01:37:08;96879.59;;;15.90;51.97
21185;BME280;18176;49.502;11.754;2023-12-29T01:41:29;96884.88;;;15.70;52.21
21185;BME280;18176;49.502;11.754;2023-12-29T01:45:53;96893.44;;;15.77;52.01
21185;BME280;18176;49.502;11.754;2023-12-29T01:50:15;96875.81;;;15.76;51.81
21185;BME280;18176;49.502;11.754;2023-12-29T01:54:39;96889.19;;;15.81;52.27
21185;BME280;18176;49.502;11.754;2023-12-29T01:59:00;96882.81;;;16.12;51.56
21185;BME280;18176;49.502;11.754;2023-12-29T02:03:34;96869.47;;;16.12;51.63
21185;BME280;18176;49.502;11.754;2023-12-29T02:07:55;96884.41;;;16.03;51.32
21185;BME280;18176;49.502;11.754;2023-12-29T02:12:17;96861.44;;;16.07;51.27
21185;BME280;18176;49.502;11.754;2023-12-29T02:16:52;96853.16;;;16.14;51.17
21185;BME280;18176;49.502;11.754;2023-12-29T02:21:23;96849.63;;;15.73;51.71
21185;BME280;18176;49.502;11.754;2023-12-29T02:25:48;96851.75;;;15.71;51.62
21185;BME280;18176;49.502;11.754;2023-12-29T02:30:11;96855.97;;;15.52;52.27
21185;BME280;18176;49.502;11.754;2023-12-29T02:34:37;96860.84;;;15.75;51.45
21185;BME280;18176;49.502;11.754;2023-12-29T02:39:00;96871.53;;;15.75;51.61
21185;BME280;18176;49.502;11.754;2023-12-29T02:43:23;96865.69;;;15.83;51.18
21185;BME280;18176;49.502;11.754;2023-12-29T02:47:44;96843.94;;;15.50;51.97
21185;BME280;18176;49.502;11.754;2023-12-29T02:52:05;96856.06;;;15.82;51.15
21185;BME280;18176;49.502;11.754;2023-12-29T02:56:26;96849.63;;;15.73;51.73
21185;BME280;18176;49.502;11.754;2023-12-29T03:00:49;96856.63;;;16.04;50.85
21185;BME280;18176;49.502;11.754;2023-12-29T03:05:11;96823.47;;;15.80;51.31
21185;BME280;18176;49.502;11.754;2023-12-29T03:09:33;96852.78;;;15.55;51.79
21185;BME280;18176;49.502;11.754;2023-12-29T03:13:53;96845.22;;;15.37;52.12
21185;BME280;18176;49.502;11.754;2023-12-29T03:18:16;96824.88;;;15.21;52.51
21185;BME280;18176;49.502;11.754;2023-12-29T03:22:37;96829.91;;;15.07;53.13
21185;BME280;18176;49.502;11.754;2023-12-29T03:26:58;96819.81;;;15.19;52.91
21185;BME280;18176;49.502;11.754;2023-12-29T03:31:18;96810.88;;;14.89;53.44
21185;BME280;18176;49.502;11.754;2023-12-29T03:35:42;96809.63;;;15.11;53.35
21185;BME280;18176;49.502;11.754;2023-12-29T03:40:06;96805.13;;;15.22;52.73
21185;BME280;18176;49.502;11.754;2023-12-29T03:44:28;96778.28;;;14.82;52.80
21185;BME280;18176;49.502;11.754;2023-12-29T03:48:49;96788.13;;;14.81;53.27
21185;BME280;18176;49.502;11.754;2023-12-29T03:53:15;96792.09;;;14.68;54.04
21185;BME280;18176;49.502;11.754;2023-12-29T03:57:36;96786.03;;;14.36;54.71
21185;BME280;18176;49.502;11.754;2023-12-29T04:01:57;96783.81;;;14.28;54.78
21185;BME280;18176;49.502;11.754;2023-12-29T04:06:18;96780.59;;;14.63;54.24
21185;BME280;18176;49.502;11.754;2023-12-29T04:10:41;96787.75;;;14.57;54.30
21185;BME280;18176;49.502;11.754;2023-12-29T04:15:02;96771.94;;;14.46;54.38
21185;BME280;18176;49.502;11.754;2023-12-29T04:19:23;96780.66;;;14.31;54.66
21185;BME280;18176;49.502;11.754;2023-12-29T04:23:44;96779.09;;;14.35;54.83
21185;BME280;18176;49.502;11.754;2023-12-29T04:28:07;96771.84;;;13.94;55.90
21185;BME280;18176;49.502;11.754;2023-12-29T04:32:28;96775.53;;;13.93;55.64
21185;BME280;18176;49.502;11.754;2023-12-29T04:36:49;96761.28;;;14.41;54.63
21185;BME280;18176;49.502;11.754;2023-12-29T04:41:12;96765.91;;;14.60;54.12
21185;BME280;18176;49.502;11.754;2023-12-29T04:45:36;96767.69;;;14.45;54.38
21185;BME280;18176;49.502;11.754;2023-12-29T04:49:57;96769.91;;;14.63;53.81
21185;BME280;18176;49.502;11.754;2023-12-29T04:54:18;96773.94;;;14.65;53.47
21185;BME280;18176;49.502;11.754;2023-12-29T04:58:38;96770.75;;;14.73;52.97
21185;BME280;18176;49.502;11.754;2023-12-29T05:03:01;96763.44;;;14.49;53.30
21185;BME280;18176;49.502;11.754;2023-12-29T05:07:24;96768.91;;;14.27;54.28
21185;BME280;18176;49.502;11.754;2023-12-29T05:11:45;96781.06;;;14.13;54.57
21185;BME280;18176;49.502;11.754;2023-12-29T05:16:06;96783.56;;;14.66;53.44
21185;BME280;18176;49.502;11.754;2023-12-29T05:20:29;96789.53;;;14.89;52.79
21185;BME280;18176;49.502;11.754;2023-12-29T05:24:50;96797.41;;;14.63;53.48
21185;BME280;18176;49.502;11.754;2023-12-29T05:29:15;96800.66;;;14.75;52.95
21185;BME280;18176;49.502;11.754;2023-12-29T05:33:36;96788.88;;;14.66;52.90
21185;BME280;18176;49.502;11.754;2023-12-29T05:37:59;96793.78;;;14.85;52.85
21185;BME280;18176;49.502;11.754;2023-12-29T05:42:20;96781.09;;;14.60;52.86
21185;BME280;18176;49.502;11.754;2023-12-29T05:46:40;96800.09;;;14.68;53.11
21185;BME280;18176;49.502;11.754;2023-12-29T05:51:07;96803.44;;;14.49;53.40
21185;BME280;18176;49.502;11.754;2023-12-29T05:55:30;96802.56;;;14.80;53.05
21185;BME280;18176;49.502;11.754;2023-12-29T05:59:51;96808.19;;;14.89;53.05
21185;BME280;18176;49.502;11.754;2023-12-29T06:04:12;96796.47;;;14.95;52.50
21185;BME280;18176;49.502;11.754;2023-12-29T06:08:33;96798.97;;;14.64;53.03
21185;BME280;18176;49.502;11.754;2023-12-29T06:12:56;96798.75;;;14.29;54.04
21185;BME280;18176;49.502;11.754;2023-12-29T06:17:16;96802.63;;;14.48;54.04
21185;BME280;18176;49.502;11.754;2023-12-29T06:21:41;96797.69;;;14.72;53.07
21185;BME280;18176;49.502;11.754;2023-12-29T06:26:02;96790.00;;;14.75;53.08
21185;BME280;18176;49.502;11.754;2023-12-29T06:30:26;96776.94;;;14.32;53.62
21185;BME280;18176;49.502;11.754;2023-12-29T06:34:47;96790.41;;;14.52;53.92
21185;BME280;18176;49.502;11.754;2023-12-29T06:39:07;96783.41;;;14.46;53.74
21185;BME280;18176;49.502;11.754;2023-12-29T06:43:28;96785.38;;;14.24;54.65
21185;BME280;18176;49.502;11.754;2023-12-29T06:47:51;96795.34;;;14.02;55.19
21185;BME280;18176;49.502;11.754;2023-12-29T06:52:12;96779.28;;;14.29;54.80
21185;BME280;18176;49.502;11.754;2023-12-29T06:56:33;96775.44;;;14.15;55.00
21185;BME280;18176;49.502;11.754;2023-12-29T07:00:53;96781.72;;;14.30;54.89
21185;BME280;18176;49.502;11.754;2023-12-29T07:05:17;96796.22;;;14.13;55.00
21185;BME280;18176;49.502;11.754;2023-12-29T07:09:38;96804.19;;;14.44;54.67
21185;BME280;18176;49.502;11.754;2023-12-29T07:14:00;96792.56;;;14.60;54.14
21185;BME280;18176;49.502;11.754;2023-12-29T07:18:20;96806.03;;;14.86;53.77
21185;BME280;18176;49.502;11.754;2023-12-29T07:22:44;96805.09;;;15.12;53.26
21185;BME280;18176;49.502;11.754;2023-12-29T07:27:05;96810.41;;;15.07;53.21
21185;BME280;18176;49.502;11.754;2023-12-29T07:31:25;96811.00;;;15.19;52.75
21185;BME280;18176;49.502;11.754;2023-12-29T07:35:46;96808.81;;;15.11;52.86
21185;BME280;18176;49.502;11.754;2023-12-29T07:40:11;96809.88;;;15.05;53.50
21185;BME280;18176;49.502;11.754;2023-12-29T07:44:32;96804.22;;;15.01;53.64
21185;BME280;18176;49.502;11.754;2023-12-29T07:48:52;96827.38;;;14.86;53.97
21185;BME280;18176;49.502;11.754;2023-12-29T07:53:13;96823.31;;;15.30;53.11
21185;BME280;18176;49.502;11.754;2023-12-29T07:57:36;96822.78;;;15.38;52.57
21185;BME280;18176;49.502;11.754;2023-12-29T08:01:57;96828.78;;;15.65;51.92
21185;BME280;18176;49.502;11.754;2023-12-29T08:06:17;96840.50;;;15.54;52.47
21185;BME280;18176;49.502;11.754;2023-12-29T08:10:38;96842.41;;;15.69;51.86
21185;BME280;18176;49.502;11.754;2023-12-29T08:15:02;96831.47;;;15.80;51.68
21185;BME280;18176;49.502;11.754;2023-12-29T08:19:23;96838.97;;;15.88;52.04
21185;BME280;18176;49.502;11.754;2023-12-29T08:23:45;96845.91;;;15.74;51.98
21185;BME280;18176;49.502;11.754;2023-12-29T08:28:06;96834.19;;;15.95;52.16
21185;BME280;18176;49.502;11.754;2023-12-29T08:32:29;96841.34;;;15.65;52.94
21185;BME280;18176;49.502;11.754;2023-12-29T08:36:51;96849.63;;;15.63;52.76
21185;BME280;18176;49.502;11.754;2023-12-29T08:41:14;96850.63;;;15.47;53.09
21185;BME280;18176;49.502;11.754;2023-12-29T08:45:35;96853.97;;;16.20;51.24
21185;BME280;18176;49.502;11.754;2023-12-29T08:49:59;96845.94;;;16.65;50.49
21185;BME280;18176;49.502;11.754;2023-12-29T08:54:20;96855.53;;;16.00;51.31
21185;BME280;18176;49.502;11.754;2023-12-29T08:58:40;96849.38;;;15.70;51.68
21185;BME280;18176;49.502;11.754;2023-12-29T09:03:01;96854.97;;;15.73;51.64
21185;BME280;18176;49.502;11.754;2023-12-29T09:07:24;96877.72;;;15.96;51.42
21185;BME280;18176;49.502;11.754;2023-12-29T09:11:46;96839.22;;;15.77;51.36
21185;BME280;18176;49.502;11.754;2023-12-29T09:16:06;96867.53;;;15.78;52.39
21185;BME280;18176;49.502;11.754;2023-12-29T09:20:28;96865.72;;;16.03;51.50
21185;BME280;18176;49.502;11.754;2023-12-29T09:24:51;96875.88;;;16.47;50.77
21185;BME280;18176;49.502;11.754;2023-12-29T09:29:12;96883.38;;;16.65;50.34
21185;BME280;18176;49.502;11.754;2023-12-29T09:33:32;96882.81;;;17.08;49.16
21185;BME280;18176;49.502;11.754;2023-12-29T09:37:54;96900.72;;;16.02;50.64
21185;BME280;18176;49.502;11.754;2023-12-29T09:42:21;96883.88;;;16.01;51.07
21185;BME280;18176;49.502;11.754;2023-12-29T09:46:43;96883.09;;;16.06;50.52
21185;BME280;18176;49.502;11.754;2023-12-29T09:51:11;96884.47;;;16.39;49.13
21185;BME280;18176;49.502;11.754;2023-12-29T09:55:32;96888.72;;;16.40;49.53
21185;BME280;18176;49.502;11.754;2023-12-29T09:59:58;96883.91;;;16.42;49.32
21185;BME280;18176;49.502;11.754;2023-12-29T10:04:27;96872.69;;;16.80;48.40
21185;BME280;18176;49.502;11.754;2023-12-29T10:08:49;96877.47;;;16.88;48.30
21185;BME280;18176;49.502;11.754;2023-12-29T10:13:11;96871.00;;;17.04;47.98
21185;BME280;18176;49.502;11.754;2023-12-29T10:17:44;96870.00;;;16.40;49.60
21185;BME280;18176;49.502;11.754;2023-12-29T10:22:21;96865.19;;;16.47;49.92
21185;BME280;18176;49.502;11.754;2023-12-29T10:26:46;96859.59;;;16.58;49.64
21185;BME280;18176;49.502;11.754;2023-12-29T10:31:15;96859.88;;;16.57;49.76
21185;BME280;18176;49.502;11.754;2023-12-29T10:35:39;96853.16;;;16.79;49.10
21185;BME280;18176;49.502;11.754;2023-12-29T10:40:02;96836.28;;;16.84;48.79
21185;BME280;18176;49.502;11.754;2023-12-29T10:44:23;96822.63;;;17.54;47.84
21185;BME280;18176;49.502;11.754;2023-12-29T10:48:44;96814.78;;;17.09;49.00
21185;BME280;18176;49.502;11.754;2023-12-29T10:53:16;96811.66;;;16.92;49.75
21185;BME280;18176;49.502;11.754;2023-12-29T10:57:39;96808.88;;;17.12;49.51
21185;BME280;18176;49.502;11.754;2023-12-29T11:02:02;96806.94;;;17.33;49.24
21185;BME280;18176;49.502;11.754;2023-12-29T11:06:24;96808.78;;;16.48;52.13
21185;BME280;18176;49.502;11.754;2023-12-29T11:10:48;96810.09;;;16.71;53.22
21185;BME280;18176;49.502;11.754;2023-12-29T11:15:13;96789.72;;;16.85;53.58
21185;BME280;18176;49.502;11.754;2023-12-29T11:19:34;96798.81;;;16.89;53.88
21185;BME280;18176;49.502;11.754;2023-12-29T11:23:55;96792.47;;;16.25;55.40
21185;BME280;18176;49.502;11.754;2023-12-29T11:28:19;96798.06;;;16.38;56.05
21185;BME280;18176;49.502;11.754;2023-12-29T11:32:49;96774.28;;;16.52;55.20
21185;BME280;18176;49.502;11.754;2023-12-29T11:37:35;96790.88;;;16.44;54.96
21185;BME280;18176;49.502;11.754;2023-12-29T11:42:05;96776.97;;;16.52;54.85
21185;BME280;18176;49.502;11.754;2023-12-29T11:46:39;96766.09;;;17.02;53.77
21185;BME280;18176;49.502;11.754;2023-12-29T11:51:01;96768.09;;;17.30;53.86
21185;BME280;18176;49.502;11.754;2023-12-29T11:55:29;96758.94;;;17.41;52.45
21185;BME280;18176;49.502;11.754;2023-12-29T11:59:50;96755.63;;;17.60;52.07
21185;BME280;18176;49.502;11.754;2023-12-29T12:04:38;96760.41;;;17.19;52.54
21185;BME280;18176;49.502;11.754;2023-12-29T12:09:16;96760.56;;;16.78;53.17
21185;BME280;18176;49.502;11.754;2023-12-29T12:13:44;96747.75;;;16.75;53.29
21185;BME280;18176;49.502;11.754;2023-12-29T12:18:06;96757.72;;;17.68;51.08
21185;BME280;18176;49.502;11.754;2023-12-29T12:22:31;96745.19;;;17.92;50.80
21185;BME280;18176;49.502;11.754;2023-12-29T12:26:55;96717.28;;;17.15;51.58
21185;BME280;18176;49.502;11.754;2023-12-29T12:31:16;96715.03;;;16.83;52.71
21185;BME280;18176;49.502;11.754;2023-12-29T12:35:37;96731.03;;;17.47;51.97
21185;BME280;18176;49.502;11.754;2023-12-29T12:40:01;96725.72;;;17.42;51.04
21185;BME280;18176;49.502;11.754;2023-12-29T12:44:21;96732.38;;;17.01;52.65
21185;BME280;18176;49.502;11.754;2023-12-29T12:48:47;96720.41;;;17.37;51.87
21185;BME280;18176;49.502;11.754;2023-12-29T12:53:08;96736.28;;;17.19;51.82
21185;BME280;18176;49.502;11.754;2023-12-29T12:57:32;96718.94;;;17.11;52.33
21185;BME280;18176;49.502;11.754;2023-12-29T13:01:54;96714.78;;;17.34;51.13
21185;BME280;18176;49.502;11.754;2023-12-29T13:06:15;96727.53;;;17.08;50.98
21185;BME280;18176;49.502;11.754;2023-12-29T13:10:41;96737.75;;;17.01;50.91
21185;BME280;18176;49.502;11.754;2023-12-29T13:15:09;96737.38;;;16.29;52.18
21185;BME280;18176;49.502;11.754;2023-12-29T13:19:30;96755.03;;;16.55;52.38
21185;BME280;18176;49.502;11.754;2023-12-29T13:23:53;96741.22;;;17.45;50.36
21185;BME280;18176;49.502;11.754;2023-12-29T13:28:15;96719.97;;;17.64;50.20
21185;BME280;18176;49.502;11.754;2023-12-29T13:32:39;96718.59;;;18.00;48.88
21185;BME280;18176;49.502;11.754;2023-12-29T13:37:05;96724.31;;;17.06;50.61
21185;BME280;18176;49.502;11.754;2023-12-29T13:41:30;96709.66;;;17.42;49.19
21185;BME280;18176;49.502;11.754;2023-12-29T13:45:52;96714.28;;;18.04;48.23
21185;BME280;18176;49.502;11.754;2023-12-29T13:50:16;96722.19;;;17.08;50.08
21185;BME280;18176;49.502;11.754;2023-12-29T13:54:42;96700.91;;;16.78;49.78
21185;BME280;18176;49.502;11.754;2023-12-29T13:59:03;96704.88;;;16.85;50.33
21185;BME280;18176;49.502;11.754;2023-12-29T14:03:31;96705.13;;;16.94;50.13
21185;BME280;18176;49.502;11.754;2023-12-29T14:08:04;96730.16;;;17.13;49.50
21185;BME280;18176;49.502;11.754;2023-12-29T14:12:28;96729.56;;;17.26;49.54
21185;BME280;18176;49.502;11.754;2023-12-29T14:16:49;96722.28;;;16.83;50.14
21185;BME280;18176;49.502;11.754;2023-12-29T14:21:23;96721.09;;;17.04;50.19
21185;BME280;18176;49.502;11.754;2023-12-29T14:25:46;96721.19;;;16.84;50.59
21185;BME280;18176;49.502;11.754;2023-12-29T14:30:18;96728.63;;;17.02;50.16
21185;BME280;18176;49.502;11.754;2023-12-29T14:34:39;96722.19;;;17.03;50.21
21185;BME280;18176;49.502;11.754;2023-12-29T14:39:02;96722.38;;;17.22;49.43
21185;BME280;18176;49.502;11.754;2023-12-29T14:43:26;96734.28;;;17.44;48.80
21185;BME280;18176;49.502;11.754;2023-12-29T14:47:47;96725.25;;;17.30;49.11
21185;BME280;18176;49.502;11.754;2023-12-29T14:52:08;96719.53;;;17.03;49.63
21185;BME280;18176;49.502;11.754;2023-12-29T14:56:29;96709.31;;;17.10;49.29
21185;BME280;18176;49.502;11.754;2023-12-29T15:00:52;96715.44;;;17.11;49.23
21185;BME280;18176;49.502;11.754;2023-12-29T15:05:13;96726.47;;;17.04;48.86
21185;BME280;18176;49.502;11.754;2023-12-29T15:09:35;96721.09;;;17.04;48.96
21185;BME280;18176;49.502;11.754;2023-12-29T15:13:56;96731.78;;;17.14;48.35
21185;BME280;18176;49.502;11.754;2023-12-29T15:18:19;96717.38;;;17.00;48.24
21185;BME280;18176;49.502;11.754;2023-12-29T15:22:41;96726.69;;;17.13;48.05
21185;BME280;18176;49.502;11.754;2023-12-29T15:27:03;96733.31;;;17.25;47.22
21185;BME280;18176;49.502;11.754;2023-12-29T15:31:24;96726.47;;;17.04;47.64
21185;BME280;18176;49.502;11.754;2023-12-29T15:35:47;96724.78;;;17.18;47.06
21185;BME280;18176;49.502;11.754;2023-12-29T15:40:10;96719.97;;;17.15;47.49
21185;BME280;18176;49.502;11.754;2023-12-29T15:44:30;96706.69;;;16.95;47.94
21185;BME280;18176;49.502;11.754;2023-12-29T15:48:51;96706.69;;;16.95;48.50
21185;BME280;18176;49.502;11.754;2023-12-29T15:53:17;96716.69;;;16.79;49.07
21185;BME280;18176;49.502;11.754;2023-12-29T15:57:38;96717.19;;;16.81;48.92
21185;BME280;18176;49.502;11.754;2023-12-29T16:01:59;96710.06;;;16.57;49.04
21185;BME280;18176;49.502;11.754;2023-12-29T16:06:21;96709.06;;;16.23;49.38
21185;BME280;18176;49.502;11.754;2023-12-29T16:10:45;96709.53;;;16.50;48.32
21185;BME280;18176;49.502;11.754;2023-12-29T16:15:06;96722.13;;;16.39;48.51
21185;BME280;18176;49.502;11.754;2023-12-29T16:19:28;96710.59;;;16.49;48.09
21185;BME280;18176;49.502;11.754;2023-12-29T16:23:49;96718.66;;;16.39;48.57
21185;BME280;18176;49.502;11.754;2023-12-29T16:28:15;96705.59;;;16.17;49.46
21185;BME280;18176;49.502;11.754;2023-12-29T16:32:36;96711.75;;;16.17;50.07
21185;BME280;18176;49.502;11.754;2023-12-29T16:37:00;96708.00;;;16.18;50.14
21185;BME280;18176;49.502;11.754;2023-12-29T16:41:21;96703.72;;;16.17;50.93
21185;BME280;18176;49.502;11.754;2023-12-29T16:45:45;96686.59;;;16.18;50.77
21185;BME280;18176;49.502;11.754;2023-12-29T16:50:07;96687.75;;;15.97;51.65
21185;BME280;18176;49.502;11.754;2023-12-29T16:54:28;96683.97;;;16.13;51.18
21185;BME280;18176;49.502;11.754;2023-12-29T16:58:51;96687.16;;;16.10;51.34
21185;BME280;18176;49.502;11.754;2023-12-29T17:03:15;96686.91;;;16.07;51.48
21185;BME280;18176;49.502;11.754;2023-12-29T17:07:36;96677.31;;;15.76;52.02
21185;BME280;18176;49.502;11.754;2023-12-29T17:11:58;96676.53;;;15.75;52.34
21185;BME280;18176;49.502;11.754;2023-12-29T17:16:20;96681.34;;;15.78;52.15
21185;BME280;18176;49.502;11.754;2023-12-29T17:20:46;96687.72;;;15.77;52.31
21185;BME280;18176;49.502;11.754;2023-12-29T17:25:08;96666.38;;;15.52;52.40
21185;BME280;18176;49.502;11.754;2023-12-29T17:29:29;96647.66;;;15.27;52.56
21185;BME280;18176;49.502;11.754;2023-12-29T17:33:50;96691.50;;;15.81;51.91
21185;BME280;18176;49.502;11.754;2023-12-29T17:38:14;96690.41;;;15.87;51.87
21185;BME280;18176;49.502;11.754;2023-12-29T17:42:35;96690.41;;;15.97;51.52
21185;BME280;18176;49.502;11.754;2023-12-29T17:46:55;96696.81;;;16.01;52.09
21185;BME280;18176;49.502;11.754;2023-12-29T17:51:19;96693.03;;;16.02;51.60
21185;BME280;18176;49.502;11.754;2023-12-29T17:55:44;96701.66;;;15.74;52.32
21185;BME280;18176;49.502;11.754;2023-12-29T18:00:08;96690.97;;;15.74;52.45
21185;BME280;18176;49.502;11.754;2023-12-29T18:04:29;96688.78;;;15.96;51.51
21185;BME280;18176;49.502;11.754;2023-12-29T18:08:50;96700.53;;;15.35;53.01
21185;BME280;18176;49.502;11.754;2023-12-29T18:13:15;96698.16;;;15.79;51.63
21185;BME280;18176;49.502;11.754;2023-12-29T18:17:38;96700.56;;;15.75;51.29
21185;BME280;18176;49.502;11.754;2023-12-29T18:21:59;96700.56;;;15.70;51.23
21185;BME280;18176;49.502;11.754;2023-12-29T18:26:20;96697.38;;;15.78;50.79
21185;BME280;18176;49.502;11.754;2023-12-29T18:30:44;96689.88;;;15.80;50.56
21185;BME280;18176;49.502;11.754;2023-12-29T18:35:05;96690.97;;;15.79;50.18
21185;BME280;18176;49.502;11.754;2023-12-29T18:39:27;96687.22;;;15.65;50.59
21185;BME280;18176;49.502;11.754;2023-12-29T18:43:48;96698.41;;;16.02;49.92
21185;BME280;18176;49.502;11.754;2023-12-29T18:48:11;96709.13;;;15.92;49.97
21185;BME280;18176;49.502;11.754;2023-12-29T18:52:32;96696.81;;;16.11;49.59
21185;BME280;18176;49.502;11.754;2023-12-29T18:56:52;96698.31;;;16.48;48.72
21185;BME280;18176;49.502;11.754;2023-12-29T19:01:13;96697.91;;;15.85;50.41
21185;BME280;18176;49.502;11.754;2023-12-29T19:05:38;96699.22;;;15.73;50.70
21185;BME280;18176;49.502;11.754;2023-12-29T19:09:59;96697.63;;;15.82;50.26
21185;BME280;18176;49.502;11.754;2023-12-29T19:14:21;96694.16;;;15.76;50.03
21185;BME280;18176;49.502;11.754;2023-12-29T19:18:42;96674.41;;;15.67;49.76
21185;BME280;18176;49.502;11.754;2023-12-29T19:23:06;96703.22;;;15.50;49.99
21185;BME280;18176;49.502;11.754;2023-12-29T19:27:27;96704.28;;;15.89;48.96
21185;BME280;18176;49.502;11.754;2023-12-29T19:31:48;96707.00;;;15.74;48.63
21185;BME280;18176;49.502;11.754;2023-12-29T19:36:11;96705.06;;;16.10;47.37
21185;BME280;18176;49.502;11.754;2023-12-29T19:40:35;96696.81;;;16.06;46.75
21185;BME280;18176;49.502;11.754;2023-12-29T19:44:56;96698.41;;;15.42;47.96
21185;BME280;18176;49.502;11.754;2023-12-29T19:49:30;96684.00;;;15.83;46.25
21185;BME280;18176;49.502;11.754;2023-12-29T19:53:50;96700.03;;;15.83;45.84
21185;BME280;18176;49.502;11.754;2023-12-29T19:58:14;96705.38;;;15.63;46.68
21185;BME280;18176;49.502;11.754;2023-12-29T20:02:34;96704.31;;;15.64;46.15
21185;BME280;18176;49.502;11.754;2023-12-29T20:06:55;96688.81;;;15.76;45.85
21185;BME280;18176;49.502;11.754;2023-12-29T20:11:16;96687.75;;;15.87;45.72
21185;BME280;18176;49.502;11.754;2023-12-29T20:15:40;96689.38;;;15.63;45.91
21185;BME280;18176;49.502;11.754;2023-12-29T20:20:02;96686.66;;;15.48;46.46
21185;BME280;18176;49.502;11.754;2023-12-29T20:24:22;96690.94;;;15.54;46.25
21185;BME280;18176;49.502;11.754;2023-12-29T20:28:43;96691.22;;;15.78;45.29
21185;BME280;18176;49.502;11.754;2023-12-29T20:33:06;96665.25;;;15.18;46.21
21185;BME280;18176;49.502;11.754;2023-12-29T20:37:27;96692.19;;;15.11;46.62
21185;BME280;18176;49.502;11.754;2023-12-29T20:41:48;96704.78;;;15.36;46.13
21185;BME280;18176;49.502;11.754;2023-12-29T20:46:12;96677.94;;;14.65;46.17
21185;BME280;18176;49.502;11.754;2023-12-29T20:50:35;96705.84;;;15.25;45.65
21185;BME280;18176;49.502;11.754;2023-12-29T20:54:56;96703.94;;;15.15;45.62
21185;BME280;18176;49.502;11.754;2023-12-29T20:59:16;96679.69;;;15.17;45.37
21185;BME280;18176;49.502;11.754;2023-12-29T21:03:37;96693.00;;;15.12;45.68
21185;BME280;18176;49.502;11.754;2023-12-29T21:08:01;96684.47;;;15.10;45.60
21185;BME280;18176;49.502;11.754;2023-12-29T21:12:21;96663.63;;;15.07;45.54
21185;BME280;18176;49.502;11.754;2023-12-29T21:16:42;96672.19;;;14.99;45.57
21185;BME280;18176;49.502;11.754;2023-12-29T21:21:03;96659.88;;;14.98;45.05
21185;BME280;18176;49.502;11.754;2023-12-29T21:25:26;96658.22;;;14.76;45.67
21185;BME280;18176;49.502;11.754;2023-12-29T21:29:49;96661.72;;;14.92;45.59
21185;BME280;18176;49.502;11.754;2023-12-29T21:34:11;96674.34;;;15.17;45.18
21185;BME280;18176;49.502;11.754;2023-12-29T21:38:32;96670.00;;;14.91;45.89
21185;BME280;18176;49.502;11.754;2023-12-29T21:42:55;96643.91;;;15.08;44.96
21185;BME280;18176;49.502;11.754;2023-12-29T21:47:17;96673.25;;;15.13;45.18
21185;BME280;18176;49.502;11.754;2023-12-29T21:51:37;96676.22;;;15.41;44.80
21185;BME280;18176;49.502;11.754;2023-12-29T21:55:58;96649.81;;;15.55;44.31
21185;BME280;18176;49.502;11.754;2023-12-29T22:00:23;96657.78;;;15.20;44.62
21185;BME280;18176;49.502;11.754;2023-12-29T22:04:43;96673.28;;;15.28;45.21
21185;BME280;18176;49.502;11.754;2023-12-29T22:09:04;96679.16;;;15.30;44.86
21185;BME280;18176;49.502;11.754;2023-12-29T22:13:25;96645.00;;;15.32;44.67
21185;BME280;18176;49.502;11.754;2023-12-29T22:17:49;96654.59;;;15.38;44.81
21185;BME280;18176;49.502;11.754;2023-12-29T22:22:10;96661.56;;;15.59;44.27
21185;BME280;18176;49.502;11.754;2023-12-29T22:26:31;96671.16;;;15.35;44.97
21185;BME280;18176;49.502;11.754;2023-12-29T22:30:52;96666.13;;;15.49;44.76
21185;BME280;18176;49.502;11.754;2023-12-29T22:35:16;96658.31;;;15.12;45.15
21185;BME280;18176;49.502;11.754;2023-12-29T22:39:37;96666.59;;;15.20;45.17
21185;BME280;18176;49.502;11.754;2023-12-29T22:43:57;96682.88;;;15.29;45.46
21185;BME280;18176;49.502;11.754;2023-12-29T22:48:18;96679.19;;;15.40;45.46
21185;BME280;18176;49.502;11.754;2023-12-29T22:52:41;96682.34;;;15.12;45.50